Time;durP1;ratioP1;P1;durP2;ratioP2;P2;SDS_P1;SDS_P2;PMS_P1;PMS_P2;Temp;Humidity;BMP_temperature;BMP_pressure;BME280_temperature;BME280_humidity;BME280_pressure;Samples;Min_cycle;Max_cycle;Signal;HPM_P1;HPM_P2
2023/08/22 00:01:27;;;;;;;5.93;4.83;;;19.80;99.90;;;;;;491615;242;28890;-75
2023/08/22 00:03:28;;;;;;;5.30;4.30;;;19.70;99.90;;;;;;491600;241;28715;-75
2023/08/22 00:05:30;;;;;;;4.30;3.90;;;19.70;99.90;;;;;;491610;241;28896;-74
2023/08/22 00:07:31;;;;;;;5.27;3.63;;;19.70;99.90;;;;;;491591;241;29338;-74
2023/08/22 00:09:32;;;;;;;3.83;3.27;;;19.70;99.90;;;;;;491615;241;29350;-74
2023/08/22 00:11:34;;;;;;;5.47;3.80;;;19.60;99.90;;;;;;491608;241;29333;-74
2023/08/22 00:13:35;;;;;;;6.23;4.43;;;19.60;99.90;;;;;;491595;241;29404;-77
2023/08/22 00:15:36;;;;;;;4.90;4.40;;;19.70;99.90;;;;;;491615;241;28822;-74
2023/08/22 00:17:37;;;;;;;7.60;3.60;;;19.60;99.90;;;;;;491608;241;28819;-76
2023/08/22 00:19:38;;;;;;;4.00;3.63;;;19.60;99.90;;;;;;491618;241;28914;-74
2023/08/22 00:21:40;;;;;;;5.60;3.57;;;19.60;99.90;;;;;;491613;241;28930;-74
2023/08/22 00:23:41;;;;;;;4.30;3.90;;;19.60;99.90;;;;;;491603;241;28815;-74
2023/08/22 00:25:42;;;;;;;5.63;4.10;;;19.60;99.90;;;;;;491611;241;28803;-73
2023/08/22 00:27:43;;;;;;;4.23;3.90;;;19.50;99.90;;;;;;491623;241;28819;-75
2023/08/22 00:29:45;;;;;;;5.10;4.60;;;19.50;99.90;;;;;;491600;241;28836;-75
2023/08/22 00:31:46;;;;;;;5.73;4.10;;;19.40;99.90;;;;;;491611;241;29282;-75
2023/08/22 00:33:47;;;;;;;5.50;4.20;;;19.40;99.90;;;;;;491611;241;29267;-74
2023/08/22 00:35:49;;;;;;;4.90;4.40;;;19.40;99.90;;;;;;491608;241;29331;-74
2023/08/22 00:37:50;;;;;;;5.93;4.60;;;19.40;99.90;;;;;;491592;241;29365;-75
2023/08/22 00:39:51;;;;;;;4.77;4.20;;;19.30;99.90;;;;;;491608;241;28774;-74
2023/08/22 00:41:52;;;;;;;6.23;4.33;;;19.30;99.90;;;;;;491609;241;28735;-75
2023/08/22 00:43:53;;;;;;;4.43;4.03;;;19.20;99.90;;;;;;491599;241;28835;-75
2023/08/22 00:45:55;;;;;;;6.30;5.07;;;19.20;99.90;;;;;;491602;241;28831;-74
2023/08/22 00:47:58;;;;;;;4.97;3.73;;;19.20;99.90;;;;;;491601;241;28818;-75
2023/08/22 00:49:59;;;;;;;8.70;3.77;;;19.20;99.90;;;;;;491613;241;28924;-72
2023/08/22 00:52:00;;;;;;;4.47;4.07;;;19.10;99.90;;;;;;491599;241;28840;-73
2023/08/22 00:54:02;;;;;;;6.67;4.13;;;19.20;99.90;;;;;;491595;241;29366;-76
2023/08/22 00:56:03;;;;;;;6.13;4.70;;;19.20;99.90;;;;;;491530;241;29291;-74
2023/08/22 00:58:04;;;;;;;6.33;5.63;;;19.10;99.90;;;;;;491614;241;29312;-74
2023/08/22 01:00:07;;;;;;;6.77;4.30;;;19.00;99.90;;;;;;491596;241;28852;-74
2023/08/22 01:02:10;;;;;;;4.40;4.00;;;18.80;99.90;;;;;;491555;241;28831;-75
2023/08/22 01:04:11;;;;;;;6.30;5.00;;;18.80;99.90;;;;;;491609;241;28831;-74
2023/08/22 01:06:12;;;;;;;4.83;4.30;;;18.90;99.90;;;;;;491616;241;29276;-74
2023/08/22 01:08:13;;;;;;;4.50;4.10;;;19.00;99.90;;;;;;491580;242;29362;-74
2023/08/22 01:10:15;;;;;;;4.50;4.10;;;18.90;99.90;;;;;;491601;241;29278;-75
2023/08/22 01:12:16;;;;;;;5.20;4.57;;;19.00;99.90;;;;;;491606;241;29366;-74
2023/08/22 01:14:17;;;;;;;6.50;4.73;;;19.00;99.90;;;;;;491609;241;28811;-75
2023/08/22 01:16:18;;;;;;;7.17;4.90;;;18.90;99.90;;;;;;491589;241;28831;-75
2023/08/22 01:18:20;;;;;;;5.23;4.10;;;18.90;99.90;;;;;;491600;241;28828;-74
2023/08/22 01:20:21;;;;;;;8.20;4.40;;;18.90;99.90;;;;;;491590;241;28827;-74
2023/08/22 01:22:23;;;;;;;4.50;4.03;;;18.90;99.90;;;;;;491597;241;28844;-73
2023/08/22 01:24:23;;;;;;;4.90;4.50;;;18.90;99.90;;;;;;491574;241;28823;-73
2023/08/22 01:26:25;;;;;;;7.90;5.50;;;18.80;99.90;;;;;;491600;242;28901;-74
2023/08/22 01:28:26;;;;;;;5.60;5.10;;;18.70;99.90;;;;;;491600;241;28839;-74
2023/08/22 01:30:27;;;;;;;7.33;4.40;;;18.60;99.90;;;;;;491586;241;28903;-74
2023/08/22 01:32:28;;;;;;;7.97;5.00;;;18.70;99.90;;;;;;491583;242;29642;-74
2023/08/22 01:34:30;;;;;;;6.03;4.30;;;18.80;99.90;;;;;;491587;241;29265;-75
2023/08/22 01:36:31;;;;;;;8.43;4.70;;;18.80;99.90;;;;;;491582;241;29276;-74
2023/08/22 01:38:32;;;;;;;5.20;4.80;;;18.80;99.90;;;;;;491592;242;28840;-74
2023/08/22 01:40:33;;;;;;;6.43;4.90;;;18.80;99.90;;;;;;491595;241;28890;-75
2023/08/22 01:42:35;;;;;;;5.10;4.60;;;18.80;99.90;;;;;;491598;242;28810;-74
2023/08/22 01:44:36;;;;;;;7.83;4.67;;;18.80;99.90;;;;;;491585;241;28834;-75
2023/08/22 01:46:37;;;;;;;7.30;4.80;;;18.80;99.90;;;;;;491587;241;28892;-74
2023/08/22 01:48:38;;;;;;;4.83;4.43;;;18.80;99.90;;;;;;491591;241;28833;-74
2023/08/22 01:50:40;;;;;;;5.20;4.50;;;18.80;99.90;;;;;;491597;241;28904;-74
2023/08/22 01:52:41;;;;;;;7.20;5.10;;;18.70;99.90;;;;;;491593;242;28904;-74
2023/08/22 01:54:42;;;;;;;5.97;4.53;;;18.70;99.90;;;;;;491600;241;28820;-74
2023/08/22 01:56:44;;;;;;;5.20;4.70;;;18.60;99.90;;;;;;491595;241;29336;-74
2023/08/22 01:58:45;;;;;;;5.97;4.40;;;18.60;99.90;;;;;;491597;241;29298;-74
2023/08/22 02:00:46;;;;;;;5.13;4.40;;;18.60;99.90;;;;;;491598;241;29344;-74
2023/08/22 02:02:47;;;;;;;5.03;4.53;;;18.60;99.90;;;;;;491574;242;28812;-74
2023/08/22 02:04:48;;;;;;;5.37;4.77;;;18.50;99.90;;;;;;491608;241;28823;-74
2023/08/22 02:06:50;;;;;;;4.60;4.20;;;18.40;99.90;;;;;;491601;242;28902;-74
2023/08/22 02:08:51;;;;;;;4.50;4.10;;;18.40;99.90;;;;;;491611;241;28872;-74
2023/08/22 02:10:52;;;;;;;6.33;4.60;;;18.40;99.90;;;;;;491605;241;28815;-76
2023/08/22 02:12:53;;;;;;;5.30;4.80;;;18.50;99.90;;;;;;491615;241;28807;-74
2023/08/22 02:14:55;;;;;;;7.00;4.93;;;18.50;99.90;;;;;;491594;241;28818;-76
2023/08/22 02:16:56;;;;;;;4.70;4.30;;;18.40;99.90;;;;;;491496;241;28828;-75
2023/08/22 02:18:57;;;;;;;5.87;4.70;;;18.40;99.90;;;;;;491605;241;28823;-76
2023/08/22 02:20:58;;;;;;;5.47;4.97;;;18.40;99.90;;;;;;491631;241;29274;-75
2023/08/22 02:23:02;;;;;;;8.03;5.47;;;18.40;99.90;;;;;;491594;242;29301;-75
2023/08/22 02:25:02;;;;;;;6.20;5.20;;;18.40;99.90;;;;;;491494;241;29279;-75
2023/08/22 02:27:05;;;;;;;5.00;4.50;;;18.30;99.90;;;;;;491572;241;29299;-74
2023/08/22 02:29:03;;;;;;;5.57;4.70;;;18.30;99.90;;;;;;491411;242;28905;-74
2023/08/22 02:31:05;;;;;;;10.17;5.37;;;18.20;99.90;;;;;;491611;241;28814;-75
2023/08/22 02:33:06;;;;;;;5.27;4.60;;;18.30;99.90;;;;;;491593;241;28839;-75
2023/08/22 02:35:07;;;;;;;6.93;4.70;;;18.30;99.90;;;;;;491583;242;28827;-74
2023/08/22 02:37:08;;;;;;;5.40;4.90;;;18.30;99.90;;;;;;491565;241;28907;-74
2023/08/22 02:39:10;;;;;;;11.70;7.23;;;18.30;99.90;;;;;;491597;241;28831;-74
2023/08/22 02:41:11;;;;;;;6.10;5.53;;;18.30;99.90;;;;;;491594;241;28832;-75
2023/08/22 02:43:12;;;;;;;5.37;4.87;;;18.20;99.90;;;;;;491590;241;28828;-75
2023/08/22 02:45:14;;;;;;;5.50;4.90;;;18.30;99.90;;;;;;491593;241;29256;-76
2023/08/22 02:47:15;;;;;;;6.53;5.20;;;18.30;99.90;;;;;;491588;241;29339;-75
2023/08/22 02:49:16;;;;;;;10.30;5.17;;;18.30;99.90;;;;;;491589;242;29382;-74
2023/08/22 02:51:17;;;;;;;5.80;5.30;;;18.30;99.90;;;;;;491579;241;28709;-74
2023/08/22 02:53:18;;;;;;;8.33;5.40;;;18.30;99.90;;;;;;491606;241;28827;-75
2023/08/22 02:55:20;;;;;;;5.37;4.60;;;18.20;99.90;;;;;;491623;241;28865;-75
2023/08/22 02:57:21;;;;;;;6.13;5.53;;;18.30;99.90;;;;;;491610;241;28799;-74
2023/08/22 02:59:22;;;;;;;8.53;5.77;;;18.30;99.90;;;;;;491615;242;28828;-74
2023/08/22 03:01:23;;;;;;;6.07;5.47;;;18.30;99.90;;;;;;491613;241;28828;-75
2023/08/22 03:03:25;;;;;;;7.00;5.13;;;18.30;99.90;;;;;;491623;241;28821;-75
2023/08/22 03:05:26;;;;;;;7.00;5.67;;;18.30;99.90;;;;;;491594;241;28837;-75
2023/08/22 03:07:27;;;;;;;6.33;5.17;;;18.30;99.90;;;;;;491608;237;28825;-73
2023/08/22 03:09:29;;;;;;;6.00;5.40;;;18.30;99.90;;;;;;491627;241;29338;-75
2023/08/22 03:11:30;;;;;;;6.17;5.57;;;18.30;99.90;;;;;;491541;241;29363;-74
2023/08/22 03:13:31;;;;;;;6.50;5.03;;;18.30;99.90;;;;;;491607;242;29327;-74
2023/08/22 03:15:32;;;;;;;6.13;5.63;;;18.30;99.90;;;;;;491619;241;28883;-75
2023/08/22 03:17:34;;;;;;;8.83;5.53;;;18.20;99.90;;;;;;491599;241;28896;-75
2023/08/22 03:19:35;;;;;;;5.50;5.00;;;18.10;99.90;;;;;;491612;241;28918;-74
2023/08/22 03:21:36;;;;;;;5.60;5.10;;;18.20;99.90;;;;;;491624;241;28919;-75
2023/08/22 03:23:37;;;;;;;9.80;6.20;;;18.10;99.90;;;;;;491631;241;28934;-75
2023/08/22 03:25:39;;;;;;;6.30;5.70;;;18.10;99.90;;;;;;491610;242;28846;-75
2023/08/22 03:27:40;;;;;;;6.10;5.60;;;18.10;99.90;;;;;;491618;241;28821;-75
2023/08/22 03:29:41;;;;;;;6.27;5.67;;;18.10;99.90;;;;;;491611;241;28836;-75
2023/08/22 03:31:42;;;;;;;11.50;5.83;;;18.10;99.90;;;;;;491509;241;28820;-74
2023/08/22 03:33:44;;;;;;;5.97;5.37;;;18.00;99.90;;;;;;491612;241;29375;-74
2023/08/22 03:35:45;;;;;;;7.93;5.23;;;18.10;99.90;;;;;;491607;241;29264;-74
2023/08/22 03:37:46;;;;;;;6.40;5.80;;;18.00;99.90;;;;;;491610;241;29287;-75
2023/08/22 03:39:47;;;;;;;7.80;5.03;;;18.00;99.90;;;;;;491614;241;28817;-72
2023/08/22 03:41:49;;;;;;;5.57;5.07;;;18.10;99.90;;;;;;491620;242;28798;-76
2023/08/22 03:43:50;;;;;;;5.97;5.37;;;18.10;99.90;;;;;;491615;241;28925;-74
2023/08/22 03:45:51;;;;;;;6.10;5.50;;;18.10;99.90;;;;;;491602;241;28801;-73
2023/08/22 03:47:52;;;;;;;6.40;5.80;;;18.10;99.90;;;;;;491582;241;28722;-73
2023/08/22 03:49:54;;;;;;;6.47;5.73;;;18.10;99.90;;;;;;491660;241;28732;-76
2023/08/22 03:51:55;;;;;;;6.43;5.73;;;18.10;99.90;;;;;;491615;241;28821;-74
2023/08/22 03:53:56;;;;;;;7.00;5.77;;;18.10;99.90;;;;;;491624;241;28836;-74
2023/08/22 03:55:57;;;;;;;6.47;5.87;;;18.10;99.90;;;;;;491626;241;28820;-76
2023/08/22 03:57:59;;;;;;;7.00;5.23;;;18.00;99.90;;;;;;491608;241;29245;-73
2023/08/22 04:00:00;;;;;;;6.03;5.33;;;18.00;99.90;;;;;;491621;241;29240;-75
2023/08/22 04:02:01;;;;;;;7.40;5.70;;;18.10;99.90;;;;;;491617;241;29278;-74
2023/08/22 04:04:02;;;;;;;7.50;6.43;;;18.00;99.90;;;;;;491627;241;28898;-74
2023/08/22 04:06:04;;;;;;;9.70;6.33;;;17.90;99.90;;;;;;491592;241;28889;-75
2023/08/22 04:08:05;;;;;;;6.13;5.63;;;17.90;99.90;;;;;;491624;241;28840;-75
2023/08/22 04:10:06;;;;;;;7.20;6.47;;;17.90;99.90;;;;;;491603;241;28923;-74
2023/08/22 04:12:07;;;;;;;7.50;5.80;;;17.90;99.90;;;;;;491602;241;28928;-74
2023/08/22 04:14:09;;;;;;;7.20;6.13;;;18.00;99.90;;;;;;491622;241;28829;-75
2023/08/22 04:16:10;;;;;;;7.90;7.20;;;18.00;99.90;;;;;;491618;241;28936;-75
2023/08/22 04:18:11;;;;;;;7.97;7.27;;;18.00;99.90;;;;;;491602;242;28838;-75
2023/08/22 04:20:12;;;;;;;7.50;6.90;;;18.00;99.90;;;;;;491611;242;28843;-74
2023/08/22 04:22:14;;;;;;;10.83;7.17;;;18.00;99.90;;;;;;491615;241;29364;-74
2023/08/22 04:24:15;;;;;;;7.77;7.00;;;18.00;99.90;;;;;;491606;241;29392;-74
2023/08/22 04:26:16;;;;;;;10.43;7.30;;;18.00;99.90;;;;;;491629;241;29270;-74
2023/08/22 04:28:18;;;;;;;7.90;6.73;;;17.90;99.90;;;;;;491614;241;28834;-78
2023/08/22 04:30:19;;;;;;;6.40;5.80;;;17.90;99.90;;;;;;491597;241;28731;-74
2023/08/22 04:32:20;;;;;;;8.73;6.80;;;17.80;99.90;;;;;;491614;241;28821;-74
2023/08/22 04:34:21;;;;;;;6.17;5.57;;;17.90;99.90;;;;;;491615;241;28937;-74
2023/08/22 04:36:22;;;;;;;7.10;6.17;;;17.80;99.90;;;;;;491623;241;28805;-74
2023/08/22 04:38:24;;;;;;;6.37;5.77;;;17.90;99.90;;;;;;491604;241;28920;-73
2023/08/22 04:40:25;;;;;;;7.10;6.13;;;17.90;99.90;;;;;;491609;241;28824;-75
2023/08/22 04:42:26;;;;;;;6.83;6.13;;;17.90;99.90;;;;;;491594;242;28909;-74
2023/08/22 04:44:27;;;;;;;9.33;6.33;;;17.90;99.90;;;;;;491614;241;28839;-74
2023/08/22 04:46:29;;;;;;;7.33;6.63;;;17.90;99.90;;;;;;491618;241;29258;-74
2023/08/22 04:48:30;;;;;;;6.90;6.27;;;18.00;99.90;;;;;;491610;241;29181;-75
2023/08/22 04:50:31;;;;;;;8.07;6.80;;;17.90;99.90;;;;;;491615;242;29359;-73
2023/08/22 04:52:32;;;;;;;7.53;6.80;;;17.90;99.90;;;;;;491612;241;28818;-74
2023/08/22 04:54:34;;;;;;;7.30;6.33;;;17.90;99.90;;;;;;491609;241;28830;-74
2023/08/22 04:56:35;;;;;;;7.27;6.57;;;18.00;99.90;;;;;;491602;241;28815;-73
2023/08/22 04:58:36;;;;;;;8.67;6.93;;;17.90;99.90;;;;;;491602;241;28837;-74
2023/08/22 05:00:37;;;;;;;6.53;5.90;;;17.90;99.90;;;;;;491607;241;28819;-73
2023/08/22 05:02:39;;;;;;;7.30;6.60;;;17.90;99.90;;;;;;491608;241;28825;-74
2023/08/22 05:04:40;;;;;;;7.60;6.90;;;17.90;99.90;;;;;;491616;241;28829;-73
2023/08/22 05:06:41;;;;;;;7.00;6.20;;;18.00;99.90;;;;;;491613;241;28825;-74
2023/08/22 05:08:42;;;;;;;8.03;6.37;;;18.00;99.90;;;;;;491592;241;29225;-75
2023/08/22 05:10:44;;;;;;;7.07;6.33;;;18.00;99.90;;;;;;491625;241;29355;-74
2023/08/22 05:12:46;;;;;;;7.00;6.23;;;18.00;99.90;;;;;;491625;241;29253;-74
2023/08/22 05:14:47;;;;;;;7.50;6.47;;;18.10;99.90;;;;;;491611;241;29272;-74
2023/08/22 05:16:51;;;;;;;8.50;6.60;;;18.00;99.90;;;;;;491585;241;28821;-74
2023/08/22 05:18:50;;;;;;;7.57;6.87;;;18.10;99.90;;;;;;491472;241;28834;-74
2023/08/22 05:20:51;;;;;;;7.50;6.83;;;18.10;99.90;;;;;;491602;241;28937;-76
2023/08/22 05:22:52;;;;;;;8.23;6.77;;;18.10;99.90;;;;;;491606;241;28894;-74
2023/08/22 05:24:53;;;;;;;8.03;7.17;;;18.10;99.90;;;;;;491605;241;28814;-74
2023/08/22 05:26:55;;;;;;;8.40;6.80;;;18.20;99.90;;;;;;491603;241;28723;-76
2023/08/22 05:28:56;;;;;;;8.83;7.80;;;18.30;99.90;;;;;;491612;241;28897;-75
2023/08/22 05:30:57;;;;;;;8.43;7.37;;;18.30;99.90;;;;;;491616;241;28815;-75
2023/08/22 05:32:58;;;;;;;8.37;7.60;;;18.30;99.90;;;;;;491601;241;28814;-75
2023/08/22 05:35:00;;;;;;;8.53;6.60;;;18.30;99.90;;;;;;491598;241;29266;-74
2023/08/22 05:37:01;;;;;;;9.13;7.23;;;18.30;99.90;;;;;;491595;242;29338;-75
2023/08/22 05:39:02;;;;;;;8.20;7.40;;;18.30;99.90;;;;;;491591;242;29267;-75
2023/08/22 05:41:03;;;;;;;8.33;6.97;;;18.40;99.90;;;;;;491610;241;29276;-75
2023/08/22 05:43:05;;;;;;;7.63;6.80;;;18.40;99.90;;;;;;491606;241;28818;-75
2023/08/22 05:45:06;;;;;;;7.20;6.50;;;18.50;99.90;;;;;;491594;241;28800;-74
2023/08/22 05:47:07;;;;;;;10.33;7.40;;;18.50;99.90;;;;;;491610;241;28827;-75
2023/08/22 05:49:08;;;;;;;8.20;7.40;;;18.50;99.90;;;;;;491596;242;28814;-74
2023/08/22 05:51:10;;;;;;;8.20;7.40;;;18.60;99.90;;;;;;491609;241;28787;-76
2023/08/22 05:53:11;;;;;;;8.40;7.03;;;18.70;99.90;;;;;;491598;242;28893;-75
2023/08/22 05:55:13;;;;;;;7.50;6.40;;;18.80;99.90;;;;;;491592;242;28882;-75
2023/08/22 05:57:13;;;;;;;8.00;7.07;;;18.80;99.90;;;;;;491589;242;28798;-74
2023/08/22 05:59:15;;;;;;;8.73;7.33;;;18.90;99.90;;;;;;491587;241;29274;-74
2023/08/22 06:01:16;;;;;;;7.77;6.57;;;18.90;99.90;;;;;;491597;241;29298;-75
2023/08/22 06:03:18;;;;;;;8.23;7.40;;;19.00;99.90;;;;;;491597;241;29268;-74
2023/08/22 06:05:18;;;;;;;7.23;6.63;;;19.00;99.90;;;;;;491601;241;29281;-75
2023/08/22 06:07:20;;;;;;;7.63;6.53;;;19.10;99.90;;;;;;491599;241;28957;-74
2023/08/22 06:09:21;;;;;;;7.63;6.93;;;19.10;99.90;;;;;;491610;241;28808;-76
2023/08/22 06:11:22;;;;;;;8.47;7.63;;;19.20;99.90;;;;;;491624;241;28833;-75
2023/08/22 06:13:23;;;;;;;8.63;7.73;;;19.20;99.90;;;;;;491592;241;28900;-74
2023/08/22 06:15:25;;;;;;;8.13;7.33;;;19.30;99.90;;;;;;491602;241;28817;-75
2023/08/22 06:17:26;;;;;;;7.13;6.53;;;19.40;99.90;;;;;;491594;242;28820;-74
2023/08/22 06:19:27;;;;;;;7.57;6.87;;;19.40;99.90;;;;;;491596;241;28837;-75
2023/08/22 06:21:28;;;;;;;8.07;7.30;;;19.50;99.90;;;;;;491599;241;28814;-74
2023/08/22 06:23:30;;;;;;;7.70;7.00;;;19.60;99.90;;;;;;491595;241;28837;-74
2023/08/22 06:25:31;;;;;;;7.43;6.73;;;19.70;99.90;;;;;;491524;241;29302;-74
2023/08/22 06:27:32;;;;;;;7.60;6.67;;;19.70;99.90;;;;;;491605;242;29293;-74
2023/08/22 06:29:33;;;;;;;8.37;6.47;;;19.70;99.90;;;;;;491613;242;29360;-74
2023/08/22 06:31:35;;;;;;;6.80;6.20;;;19.80;99.90;;;;;;491629;241;28708;-74
2023/08/22 06:33:36;;;;;;;6.23;5.60;;;19.90;99.90;;;;;;491618;242;28704;-74
2023/08/22 06:35:37;;;;;;;6.33;5.83;;;20.00;99.90;;;;;;491617;241;28908;-74
2023/08/22 06:37:38;;;;;;;8.10;6.17;;;20.00;99.90;;;;;;491612;241;28804;-74
2023/08/22 06:39:40;;;;;;;5.83;5.40;;;20.00;99.90;;;;;;491614;241;28817;-74
2023/08/22 06:41:41;;;;;;;5.63;5.03;;;20.10;99.90;;;;;;491612;241;28715;-74
2023/08/22 06:43:42;;;;;;;6.63;5.60;;;20.10;99.90;;;;;;491609;241;28835;-73
2023/08/22 06:45:43;;;;;;;5.97;5.37;;;20.20;99.90;;;;;;491620;241;28816;-74
2023/08/22 06:47:45;;;;;;;5.50;4.80;;;20.30;99.90;;;;;;491620;241;28828;-74
2023/08/22 06:49:46;;;;;;;5.63;5.10;;;20.40;99.90;;;;;;491609;242;29385;-74
2023/08/22 06:51:47;;;;;;;5.50;5.00;;;20.50;99.90;;;;;;491616;241;29263;-74
2023/08/22 06:53:48;;;;;;;6.93;5.10;;;20.50;99.90;;;;;;491617;241;29270;-75
2023/08/22 06:55:50;;;;;;;5.77;5.10;;;20.60;99.90;;;;;;491606;241;28904;-74
2023/08/22 06:57:51;;;;;;;5.23;4.70;;;20.60;99.90;;;;;;491618;241;28808;-74
2023/08/22 06:59:52;;;;;;;5.13;4.73;;;20.60;99.90;;;;;;491597;241;28819;-75
2023/08/22 07:01:53;;;;;;;5.50;5.00;;;20.70;99.90;;;;;;491625;241;28918;-74
2023/08/22 07:03:55;;;;;;;8.87;4.70;;;20.80;99.90;;;;;;491615;242;28919;-74
2023/08/22 07:05:56;;;;;;;4.20;3.90;;;20.90;99.90;;;;;;491612;241;28813;-74
2023/08/22 07:07:57;;;;;;;4.40;4.00;;;20.90;99.90;;;;;;491614;242;28815;-74
2023/08/22 07:09:58;;;;;;;6.87;4.00;;;20.90;99.90;;;;;;491621;242;28808;-75
2023/08/22 07:12:00;;;;;;;4.73;4.23;;;21.00;99.90;;;;;;491626;241;28813;-79
2023/08/22 07:14:01;;;;;;;4.57;4.10;;;21.10;99.90;;;;;;491612;241;29303;-75
2023/08/22 07:16:03;;;;;;;9.43;3.93;;;21.00;99.90;;;;;;491612;241;29236;-75
2023/08/22 07:18:04;;;;;;;5.30;4.07;;;21.10;99.90;;;;;;491619;241;28733;-76
2023/08/22 07:20:06;;;;;;;4.13;3.53;;;21.20;99.90;;;;;;491614;241;28890;-75
2023/08/22 07:22:07;;;;;;;5.93;3.50;;;21.30;99.90;;;;;;491606;242;29272;-75
2023/08/22 07:24:08;;;;;;;4.77;3.90;;;21.30;99.90;;;;;;491618;241;29205;-75
2023/08/22 07:26:09;;;;;;;5.60;3.53;;;21.30;99.90;;;;;;491610;241;29735;-75
2023/08/22 07:28:11;;;;;;;5.00;3.60;;;21.40;99.90;;;;;;491605;242;28800;-75
2023/08/22 07:30:12;;;;;;;5.80;3.80;;;21.40;99.90;;;;;;491606;241;28910;-75
2023/08/22 07:32:13;;;;;;;4.93;3.37;;;21.50;99.90;;;;;;491614;241;28898;-75
2023/08/22 07:34:14;;;;;;;5.40;3.43;;;21.50;99.90;;;;;;491622;241;28812;-76
2023/08/22 07:36:16;;;;;;;4.10;3.67;;;21.60;99.90;;;;;;491612;241;28839;-75
2023/08/22 07:38:17;;;;;;;5.17;3.70;;;21.60;99.90;;;;;;491597;242;28894;-75
2023/08/22 07:40:18;;;;;;;3.97;3.57;;;21.60;99.90;;;;;;491610;241;28906;-75
2023/08/22 07:42:19;;;;;;;3.93;3.13;;;21.70;99.90;;;;;;491605;241;28891;-76
2023/08/22 07:44:23;;;;;;;3.47;3.13;;;21.80;99.90;;;;;;491607;241;29274;-76
2023/08/22 07:46:22;;;;;;;6.23;2.83;;;21.90;99.90;;;;;;491455;241;29286;-74
2023/08/22 07:48:23;;;;;;;3.50;3.20;;;21.90;99.90;;;;;;491611;241;29185;-75
2023/08/22 07:50:24;;;;;;;3.00;2.77;;;22.00;99.90;;;;;;491615;241;29271;-74
2023/08/22 07:52:26;;;;;;;3.00;2.73;;;22.10;99.90;;;;;;491601;241;28798;-75
2023/08/22 07:54:27;;;;;;;3.43;2.80;;;22.10;99.90;;;;;;491602;241;28701;-77
2023/08/22 07:56:28;;;;;;;3.67;3.00;;;22.20;99.90;;;;;;491599;242;28803;-76
2023/08/22 07:58:29;;;;;;;2.60;2.40;;;22.20;99.90;;;;;;491594;241;28792;-75
2023/08/22 08:00:31;;;;;;;2.73;2.53;;;22.10;99.90;;;;;;491587;242;28932;-75
2023/08/22 08:02:32;;;;;;;7.07;3.00;;;22.20;99.90;;;;;;491611;241;28928;-75
2023/08/22 08:04:33;;;;;;;2.93;2.50;;;22.30;99.90;;;;;;491611;241;28914;-77
2023/08/22 08:06:35;;;;;;;2.80;2.30;;;22.30;99.90;;;;;;491606;241;28909;-75
2023/08/22 08:08:37;;;;;;;2.87;2.40;;;22.30;99.90;;;;;;491601;241;28794;-76
2023/08/22 08:10:38;;;;;;;2.40;2.20;;;22.40;99.90;;;;;;491606;241;28917;-75
2023/08/22 08:12:39;;;;;;;2.20;2.00;;;22.40;99.90;;;;;;491611;241;29331;-75
2023/08/22 08:14:40;;;;;;;2.70;2.23;;;22.50;99.90;;;;;;491608;241;29226;-74
2023/08/22 08:16:42;;;;;;;3.80;1.97;;;22.50;99.90;;;;;;491659;242;29783;-75
2023/08/22 08:18:43;;;;;;;8.03;2.33;;;22.60;99.90;;;;;;491581;241;29273;-75
2023/08/22 08:20:44;;;;;;;2.87;2.40;;;22.70;99.90;;;;;;491601;242;29311;-75
2023/08/22 08:22:45;;;;;;;2.40;2.07;;;22.70;99.90;;;;;;491604;241;28822;-75
2023/08/22 08:24:47;;;;;;;3.03;2.00;;;22.80;99.90;;;;;;491587;242;28821;-75
2023/08/22 08:26:48;;;;;;;2.47;2.33;;;22.80;99.90;;;;;;491598;242;28834;-75
2023/08/22 08:28:50;;;;;;;2.97;2.47;;;22.90;99.90;;;;;;491596;241;28826;-75
2023/08/22 08:30:51;;;;;;;3.17;2.50;;;22.90;99.90;;;;;;491603;241;28822;-76
2023/08/22 08:32:52;;;;;;;2.33;2.10;;;23.00;99.90;;;;;;491592;241;28799;-75
2023/08/22 08:34:53;;;;;;;4.07;2.27;;;22.90;99.90;;;;;;491600;241;28896;-76
2023/08/22 08:36:54;;;;;;;2.57;2.20;;;23.00;99.90;;;;;;491602;241;28984;-75
2023/08/22 08:38:56;;;;;;;3.23;2.50;;;23.00;99.90;;;;;;491597;241;28898;-75
2023/08/22 08:40:59;;;;;;;4.03;2.70;;;23.00;99.90;;;;;;491601;241;29339;-76
2023/08/22 08:42:59;;;;;;;3.70;2.80;;;23.00;99.90;;;;;;491479;241;29287;-76
2023/08/22 08:44:59;;;;;;;4.07;2.60;;;23.20;99.90;;;;;;491553;242;29270;-75
2023/08/22 08:47:01;;;;;;;6.50;3.13;;;23.20;99.90;;;;;;491586;241;28909;-76
2023/08/22 08:49:02;;;;;;;3.73;2.37;;;23.30;99.90;;;;;;491585;241;28803;-76
2023/08/22 08:51:04;;;;;;;20.63;5.10;;;23.30;99.90;;;;;;491591;241;28807;-75
2023/08/22 08:53:04;;;;;;;10.90;3.30;;;23.20;99.90;;;;;;491576;242;28825;-75
2023/08/22 08:55:06;;;;;;;6.30;2.77;;;23.30;99.90;;;;;;491592;241;28819;-74
2023/08/22 08:57:07;;;;;;;2.80;2.57;;;23.30;99.90;;;;;;491603;241;28811;-76
2023/08/22 08:59:08;;;;;;;3.27;2.30;;;23.50;99.90;;;;;;491588;241;28806;-75
2023/08/22 09:01:09;;;;;;;4.00;2.40;;;23.70;99.90;;;;;;491593;241;28819;-76
2023/08/22 09:03:11;;;;;;;2.80;2.23;;;23.70;99.90;;;;;;491593;241;29263;-75
2023/08/22 09:05:12;;;;;;;4.17;2.57;;;23.70;99.90;;;;;;491588;241;29279;-75
2023/08/22 09:07:13;;;;;;;2.13;1.93;;;23.70;99.90;;;;;;491588;242;29376;-75
2023/08/22 09:09:14;;;;;;;5.50;2.47;;;23.80;99.90;;;;;;491607;241;29256;-76
2023/08/22 09:11:16;;;;;;;2.90;2.43;;;23.80;99.90;;;;;;491590;242;28890;-76
2023/08/22 09:13:17;;;;;;;4.17;2.20;;;23.90;99.90;;;;;;491580;241;28842;-75
2023/08/22 09:15:18;;;;;;;2.40;2.20;;;23.90;99.90;;;;;;491599;241;28894;-75
2023/08/22 09:17:19;;;;;;;3.20;2.40;;;23.90;99.90;;;;;;491600;241;28814;-75
2023/08/22 09:19:21;;;;;;;2.73;2.17;;;24.00;99.90;;;;;;491574;242;28805;-76
2023/08/22 09:21:22;;;;;;;2.63;1.90;;;24.00;99.90;;;;;;491562;242;28889;-74
2023/08/22 09:23:23;;;;;;;5.40;2.00;;;24.10;99.90;;;;;;491601;241;28810;-75
2023/08/22 09:25:24;;;;;;;4.43;2.30;;;24.00;99.90;;;;;;491602;241;28834;-74
2023/08/22 09:27:26;;;;;;;3.03;2.10;;;24.00;99.90;;;;;;491586;241;28830;-75
2023/08/22 09:29:27;;;;;;;2.80;2.07;;;24.10;99.90;;;;;;491599;242;29245;-75
2023/08/22 09:31:28;;;;;;;1.87;1.77;;;24.10;99.90;;;;;;491584;241;29175;-74
2023/08/22 09:33:29;;;;;;;2.50;1.90;;;24.00;99.90;;;;;;491595;241;29246;-74
2023/08/22 09:35:32;;;;;;;4.20;2.33;;;24.10;99.90;;;;;;491581;241;28883;-75
2023/08/22 09:37:32;;;;;;;3.00;2.10;;;24.20;99.90;;;;;;491549;241;28835;-74
2023/08/22 09:39:36;;;;;;;6.57;1.80;;;24.30;99.90;;;;;;491592;241;28803;-74
2023/08/22 09:41:34;;;;;;;2.20;1.67;;;24.20;99.90;;;;;;491460;241;28826;-74
2023/08/22 09:43:39;;;;;;;2.33;1.70;;;24.40;99.90;;;;;;491588;241;28805;-73
2023/08/22 09:45:42;;;;;;;2.10;1.93;;;24.30;99.90;;;;;;491390;241;28897;-75
2023/08/22 09:47:38;;;;;;;2.00;1.90;;;24.30;99.90;;;;;;491286;241;28833;-73
2023/08/22 09:49:39;;;;;;;2.40;2.10;;;24.50;99.90;;;;;;491601;241;28896;-74
2023/08/22 09:51:41;;;;;;;2.13;1.93;;;24.60;99.90;;;;;;491594;242;28813;-74
2023/08/22 09:53:42;;;;;;;1.90;1.80;;;24.80;99.90;;;;;;491581;241;29245;-74
2023/08/22 09:55:43;;;;;;;2.37;1.80;;;24.90;99.90;;;;;;491597;241;29177;-75
2023/08/22 09:57:44;;;;;;;3.13;1.83;;;24.80;99.90;;;;;;491596;241;29294;-75
2023/08/22 09:59:46;;;;;;;4.57;1.77;;;24.80;99.90;;;;;;491573;241;28898;-74
2023/08/22 10:01:47;;;;;;;2.20;1.80;;;24.80;99.90;;;;;;491587;241;28815;-74
2023/08/22 10:03:48;;;;;;;2.53;1.60;;;24.90;99.90;;;;;;491601;242;28919;-74
2023/08/22 10:05:49;;;;;;;6.90;2.60;;;24.90;99.90;;;;;;491610;241;28800;-75
2023/08/22 10:07:51;;;;;;;1.80;1.70;;;24.90;99.90;;;;;;491612;241;28902;-77
2023/08/22 10:09:52;;;;;;;3.03;1.90;;;24.90;99.90;;;;;;491599;241;28846;-74
2023/08/22 10:11:53;;;;;;;2.50;2.20;;;24.90;99.90;;;;;;491615;241;28717;-75
2023/08/22 10:13:54;;;;;;;2.20;2.00;;;24.90;99.90;;;;;;491598;241;28818;-75
2023/08/22 10:15:56;;;;;;;3.00;2.23;;;24.90;99.90;;;;;;491600;242;28806;-75
2023/08/22 10:17:57;;;;;;;4.23;2.60;;;24.90;99.90;;;;;;491611;241;29267;-74
2023/08/22 10:19:58;;;;;;;2.20;2.00;;;25.00;99.90;;;;;;491572;241;29278;-74
2023/08/22 10:22:00;;;;;;;2.37;2.17;;;25.10;99.90;;;;;;491557;241;29187;-74
2023/08/22 10:24:02;;;;;;;2.30;2.10;;;25.10;99.90;;;;;;491597;241;28813;-74
2023/08/22 10:26:03;;;;;;;2.60;1.70;;;25.10;99.90;;;;;;491605;241;28722;-74
2023/08/22 10:28:04;;;;;;;7.10;1.97;;;25.20;99.90;;;;;;493152;241;28808;-74
2023/08/22 10:30:05;;;;;;;2.47;2.17;;;25.20;99.90;;;;;;493150;241;28820;-74